Time;durP1;ratioP1;P1;durP2;ratioP2;P2;SDS_P1;SDS_P2;PMS_P1;PMS_P2;Temp;Humidity;BMP_temperature;BMP_pressure;BME280_temperature;BME280_humidity;BME280_pressure;Samples;Min_cycle;Max_cycle;Signal;HPM_P1;HPM_P2
2023/12/24 00:01:49;;;;;;;11.98;6.72;;;;;;;2.22;100.00;98338.88;4917726;29;20052;-81
2023/12/24 00:04:15;;;;;;;5.68;3.38;;;;;;;2.28;100.00;98358.41;4917987;29;20423;-81
2023/12/24 00:06:40;;;;;;;6.85;3.60;;;;;;;2.27;100.00;98356.69;4900699;29;20111;-81
2023/12/24 00:09:05;;;;;;;3.63;2.42;;;;;;;2.25;100.00;98349.06;4917870;29;20036;-81
2023/12/24 00:11:31;;;;;;;9.85;5.35;;;;;;;2.26;100.00;98360.16;4900654;29;20024;-81
2023/12/24 00:13:56;;;;;;;8.50;4.93;;;;;;;2.28;100.00;98355.00;4917621;29;20063;-81
2023/12/24 00:16:22;;;;;;;7.07;3.90;;;;;;;2.27;100.00;98363.56;4917723;29;20545;-81
2023/12/24 00:18:47;;;;;;;4.85;2.65;;;;;;;2.30;100.00;98369.47;4917496;29;20036;-81
2023/12/24 00:21:13;;;;;;;6.97;3.20;;;;;;;2.34;100.00;98383.88;4917610;29;20028;-81
2023/12/24 00:23:39;;;;;;;8.35;3.63;;;;;;;2.12;100.00;98365.78;4917410;29;20096;-81
2023/12/24 00:26:04;;;;;;;5.90;2.72;;;;;;;2.06;100.00;98357.41;4917595;29;20036;-81
2023/12/24 00:28:29;;;;;;;9.77;4.97;;;;;;;2.17;100.00;98374.16;4917700;29;20071;-81
2023/12/24 00:30:55;;;;;;;7.70;3.03;;;;;;;2.18;100.00;98380.97;4917262;29;20043;-81
2023/12/24 00:33:20;;;;;;;11.73;6.45;;;;;;;2.26;100.00;98383.28;4900643;29;20043;-81
2023/12/24 00:35:47;;;;;;;6.05;4.45;;;;;;;2.09;100.00;98354.75;4900061;29;20048;-81
2023/12/24 00:38:12;;;;;;;7.25;4.65;;;;;;;2.09;100.00;98355.59;4917415;29;20028;-81
2023/12/24 00:40:38;;;;;;;8.45;4.40;;;;;;;2.07;100.00;98352.25;4917121;29;20038;-81
2023/12/24 00:43:03;;;;;;;6.47;4.32;;;;;;;2.17;100.00;98381.88;4900250;29;20063;-81
2023/12/24 00:45:29;;;;;;;6.07;3.22;;;;;;;2.17;100.00;98381.03;4917637;29;20040;-81
2023/12/24 00:47:55;;;;;;;5.20;2.88;;;;;;;2.20;100.00;98392.06;4917111;29;20028;-81
2023/12/24 00:50:20;;;;;;;6.65;3.42;;;;;;;1.91;100.00;98351.06;4917361;29;20028;-81
2023/12/24 00:52:46;;;;;;;7.90;4.43;;;;;;;2.11;100.00;98392.34;4899999;29;20031;-81
2023/12/24 00:55:12;;;;;;;8.15;5.30;;;;;;;1.87;100.00;98358.03;4916986;29;20030;-81
2023/12/24 00:57:37;;;;;;;6.35;3.80;;;;;;;2.04;100.00;98392.59;4916714;29;20034;-81
2023/12/24 01:00:04;;;;;;;5.32;3.08;;;;;;;2.01;100.00;98393.53;4916704;29;20080;-81
2023/12/24 01:02:30;;;;;;;7.53;3.85;;;;;;;1.85;100.00;98364.94;4916338;29;20027;-81
2023/12/24 01:04:55;;;;;;;5.72;3.95;;;;;;;2.06;100.00;98401.09;4899342;29;20389;-81
2023/12/24 01:07:20;;;;;;;3.10;2.00;;;;;;;1.92;100.00;98388.69;4916862;29;20024;-80
2023/12/24 01:09:46;;;;;;;7.25;2.20;;;;;;;2.03;100.00;98404.59;4916545;29;20031;-81
2023/12/24 01:12:12;;;;;;;6.97;2.95;;;;;;;2.17;100.00;98417.84;4916803;29;20104;-81
2023/12/24 01:14:37;;;;;;;3.53;1.65;;;;;;;2.09;100.00;98408.69;4916749;29;20034;-81
2023/12/24 01:17:02;;;;;;;1.85;1.40;;;;;;;2.09;100.00;98408.69;4899496;29;20092;-81
2023/12/24 01:19:28;;;;;;;2.28;1.52;;;;;;;2.12;100.00;98411.19;4899862;29;20126;-81
2023/12/24 01:21:56;;;;;;;2.65;1.40;;;;;;;2.14;100.00;98430.75;4916373;29;20206;-81
2023/12/24 01:24:21;;;;;;;1.92;1.65;;;;;;;2.12;100.00;98424.84;4916325;29;20096;-81
2023/12/24 01:26:47;;;;;;;2.78;1.50;;;;;;;2.13;100.00;98421.38;4916356;29;20473;-81
2023/12/24 01:29:12;;;;;;;4.50;1.65;;;;;;;2.11;100.00;98412.91;4916643;29;20430;-81
2023/12/24 01:31:38;;;;;;;2.90;1.90;;;;;;;2.20;100.00;98429.75;4899455;29;20024;-81
2023/12/24 01:34:03;;;;;;;4.25;2.05;;;;;;;1.94;100.00;98377.50;4916575;29;20042;-81
2023/12/24 01:36:28;;;;;;;2.20;1.50;;;;;;;2.29;100.00;98432.00;4916324;29;20099;-81
2023/12/24 01:38:54;;;;;;;3.50;1.70;;;;;;;2.18;100.00;98419.50;4916242;29;20157;-81
2023/12/24 01:41:19;;;;;;;2.78;1.67;;;;;;;2.15;100.00;98413.63;4916319;29;20386;-80
2023/12/24 01:43:45;;;;;;;3.85;2.83;;;;;;;1.95;100.00;98393.75;4916155;29;20470;-81
2023/12/24 01:46:15;;;;;;;10.10;6.07;;;;;;;1.84;100.00;98378.66;4916144;29;20107;-81
2023/12/24 01:48:40;;;;;;;9.43;5.88;;;;;;;2.23;100.00;98427.06;4899084;29;20515;-81
2023/12/24 01:51:07;;;;;;;7.43;4.15;;;;;;;2.28;100.00;98427.78;4916399;29;20111;-81
2023/12/24 01:53:33;;;;;;;5.75;2.80;;;;;;;2.07;100.00;98395.09;4916628;29;20493;-81
2023/12/24 01:56:01;;;;;;;3.97;2.47;;;;;;;2.29;100.00;98433.75;4898973;29;20036;-81
2023/12/24 01:58:27;;;;;;;4.47;2.40;;;;;;;2.20;100.00;98430.59;4915810;29;20032;-81
2023/12/24 02:00:53;;;;;;;6.95;2.72;;;;;;;2.18;100.00;98422.06;4916501;29;20067;-81
2023/12/24 02:03:19;;;;;;;7.95;4.50;;;;;;;2.18;100.00;98426.38;4916529;29;20482;-81
2023/12/24 02:05:47;;;;;;;7.88;5.07;;;;;;;2.20;100.00;98419.47;4899009;29;20053;-81
2023/12/24 02:08:14;;;;;;;6.03;2.85;;;;;;;2.16;100.00;98423.88;4915949;29;20494;-81
2023/12/24 02:10:40;;;;;;;7.30;3.90;;;;;;;2.25;100.00;98427.88;4916123;29;20088;-81
2023/12/24 02:13:06;;;;;;;5.05;2.80;;;;;;;2.22;100.00;98417.69;4915882;29;20028;-81
2023/12/24 02:15:32;;;;;;;7.78;3.78;;;;;;;2.07;100.00;98397.66;4918460;29;20040;-81
2023/12/24 02:17:59;;;;;;;6.05;2.83;;;;;;;2.09;100.00;98401.81;4919889;29;20042;-81
2023/12/24 02:20:25;;;;;;;6.03;3.13;;;;;;;2.15;100.00;98413.63;4902800;29;20035;-80
2023/12/24 02:22:51;;;;;;;6.93;3.45;;;;;;;2.19;100.00;98426.34;4919591;29;20092;-81
2023/12/24 02:25:16;;;;;;;3.17;1.98;;;;;;;2.17;100.00;98417.84;4919967;29;20036;-81
2023/12/24 02:27:51;;;;;;;4.07;2.55;;;;;;;2.19;100.00;98413.50;4919751;29;20453;-81
2023/12/24 02:30:26;;;;;;;4.82;2.53;;;;;;;2.06;100.00;98391.66;4902632;29;20024;-80
2023/12/24 02:32:57;;;;;;;3.10;2.05;;;;;;;2.27;100.00;98417.53;4919338;29;20032;-81
2023/12/24 02:35:28;;;;;;;4.25;2.53;;;;;;;2.32;100.00;98431.91;4919671;29;20048;-81
2023/12/24 02:37:53;;;;;;;4.22;2.42;;;;;;;2.19;100.00;98408.38;4919583;29;20052;-81
2023/12/24 02:40:19;;;;;;;2.15;1.77;;;;;;;2.31;100.00;98421.69;4919235;29;20071;-81
2023/12/24 02:42:44;;;;;;;2.88;2.35;;;;;;;2.31;100.00;98413.97;4919155;29;20051;-81
2023/12/24 02:45:10;;;;;;;4.20;2.50;;;;;;;2.19;100.00;98394.66;4919683;29;20055;-81
2023/12/24 02:47:37;;;;;;;3.53;2.30;;;;;;;2.06;100.00;98376.25;4919393;29;20541;-80
2023/12/24 02:50:03;;;;;;;4.43;2.80;;;;;;;2.27;100.00;98410.66;4901917;29;20020;-81
2023/12/24 02:52:28;;;;;;;3.53;2.83;;;;;;;2.24;100.00;98406.47;4919355;29;20072;-81
2023/12/24 02:54:55;;;;;;;3.88;2.95;;;;;;;2.08;100.00;98378.78;4918952;29;20090;-80
2023/12/24 02:57:21;;;;;;;5.28;3.45;;;;;;;2.28;100.00;98414.09;4919209;29;20060;-81
2023/12/24 02:59:46;;;;;;;6.30;4.18;;;;;;;2.09;100.00;98381.28;4919078;29;20063;-81
2023/12/24 03:02:11;;;;;;;4.72;3.15;;;;;;;2.18;100.00;98410.97;4918932;29;20040;-82
2023/12/24 03:04:37;;;;;;;3.30;2.30;;;;;;;2.24;100.00;98413.34;4919090;29;20076;-81
2023/12/24 03:07:02;;;;;;;4.22;2.70;;;;;;;2.06;100.00;98376.25;4918746;29;20032;-82
2023/12/24 03:09:28;;;;;;;4.40;2.60;;;;;;;2.07;100.00;98385.63;4918925;29;20458;-82
2023/12/24 03:11:53;;;;;;;2.58;2.35;;;;;;;2.31;100.00;98413.97;4901699;29;20032;-81
2023/12/24 03:14:18;;;;;;;4.57;3.15;;;;;;;2.19;100.00;98410.06;4918938;29;20462;-81
2023/12/24 03:16:44;;;;;;;4.13;2.55;;;;;;;2.08;100.00;98384.75;4918922;29;20071;-82
2023/12/24 03:19:09;;;;;;;3.17;2.40;;;;;;;2.11;100.00;98389.78;4918514;29;20024;-81
2023/12/24 03:24:56;;;;;;;2.42;1.88;;;;;;;2.27;100.00;98418.38;4917978;29;20096;-81
2023/12/24 03:27:23;;;;;;;3.38;2.22;;;;;;;2.17;100.00;98402.41;4918338;29;20431;-81
2023/12/24 03:29:49;;;;;;;5.55;2.92;;;;;;;2.13;100.00;98405.13;4918275;29;20028;-81
2023/12/24 03:32:14;;;;;;;4.88;2.70;;;;;;;2.18;100.00;98414.38;4918828;29;20044;-82
2023/12/24 03:34:40;;;;;;;3.90;2.88;;;;;;;2.23;100.00;98427.06;4918494;29;20034;-82
2023/12/24 03:37:06;;;;;;;4.40;2.88;;;;;;;2.16;100.00;98415.31;4918175;29;20108;-82
2023/12/24 03:39:31;;;;;;;3.63;3.10;;;;;;;2.16;100.00;98425.59;4918434;29;20036;-81
2023/12/24 03:41:56;;;;;;;5.05;2.95;;;;;;;2.02;100.00;98397.75;4901234;29;20079;-81
2023/12/24 03:44:21;;;;;;;4.18;2.85;;;;;;;2.12;100.00;98419.72;4918416;29;20075;-82
2023/12/24 03:46:47;;;;;;;2.85;2.50;;;;;;;2.02;100.00;98400.34;4917992;29;20036;-81
2023/12/24 03:49:12;;;;;;;5.15;3.50;;;;;;;2.02;100.00;98399.50;4918041;29;20046;-82
2023/12/24 03:51:37;;;;;;;5.82;4.20;;;;;;;2.09;100.00;98408.69;4917964;29;20036;-81
2023/12/24 03:54:03;;;;;;;5.68;3.50;;;;;;;2.16;100.00;98423.03;4918006;29;20024;-81
2023/12/24 03:56:28;;;;;;;5.80;4.10;;;;;;;1.95;100.00;98381.72;4918113;29;20033;-80
2023/12/24 03:58:54;;;;;;;5.88;4.45;;;;;;;2.18;100.00;98410.97;4917770;29;20063;-81
2023/12/24 04:01:26;;;;;;;6.65;4.20;;;;;;;2.19;100.00;98407.50;4901114;29;20059;-81
2023/12/24 04:03:52;;;;;;;8.68;4.50;;;;;;;2.06;100.00;98399.34;4901063;29;20434;-82
2023/12/24 04:06:17;;;;;;;7.20;4.10;;;;;;;2.18;100.00;98413.53;4917688;29;20074;-82
2023/12/24 04:08:43;;;;;;;5.63;3.58;;;;;;;2.33;100.00;98450.75;4917527;29;20024;-81
2023/12/24 04:11:12;;;;;;;4.85;3.25;;;;;;;2.08;100.00;98386.47;4917726;29;20036;-82
2023/12/24 04:13:38;;;;;;;2.38;2.15;;;;;;;2.33;100.00;98432.75;4917580;29;20488;-81
2023/12/24 04:16:04;;;;;;;4.00;2.97;;;;;;;2.33;100.00;98430.19;4917681;29;20047;-81
2023/12/24 04:18:29;;;;;;;3.25;2.70;;;;;;;2.18;100.00;98408.41;4918105;29;20096;-82
2023/12/24 04:20:54;;;;;;;3.88;2.83;;;;;;;2.03;100.00;98384.06;4918009;29;20028;-81
2023/12/24 04:23:20;;;;;;;4.68;3.58;;;;;;;2.14;100.00;98399.94;4900809;29;20416;-81
2023/12/24 04:25:45;;;;;;;5.25;3.35;;;;;;;2.15;100.00;98403.34;4917775;29;20063;-81
2023/12/24 04:28:10;;;;;;;4.80;3.42;;;;;;;2.33;100.00;98428.47;4917770;29;20107;-81
2023/12/24 04:30:36;;;;;;;3.85;3.05;;;;;;;2.22;100.00;98417.69;4917661;29;20056;-81
2023/12/24 04:33:01;;;;;;;4.63;3.08;;;;;;;2.28;100.00;98424.38;4917458;29;20047;-82
2023/12/24 04:35:26;;;;;;;4.53;2.83;;;;;;;2.25;100.00;98418.41;4917483;29;20052;-81
2023/12/24 04:37:52;;;;;;;5.28;3.50;;;;;;;2.34;100.00;98426.72;4916583;29;20035;-81
2023/12/24 04:40:17;;;;;;;4.93;3.28;;;;;;;2.06;100.00;98373.66;4917710;29;20028;-82
2023/12/24 04:42:42;;;;;;;4.43;2.90;;;;;;;2.22;100.00;98408.25;4918505;29;20040;-81
2023/12/24 04:45:08;;;;;;;5.15;3.53;;;;;;;2.13;100.00;98393.13;4917703;29;20351;-81
2023/12/24 04:47:33;;;;;;;3.97;3.40;;;;;;;2.11;100.00;98387.22;4917511;29;20036;-82
2023/12/24 04:49:59;;;;;;;4.35;3.00;;;;;;;2.31;100.00;98427.66;4900061;29;20438;-81
2023/12/24 04:52:24;;;;;;;3.45;2.63;;;;;;;2.35;100.00;98429.22;4895586;29;20044;-82
2023/12/24 04:54:49;;;;;;;3.17;2.53;;;;;;;2.27;100.00;98412.38;4895801;29;20047;-82
2023/12/24 04:57:15;;;;;;;4.60;2.95;;;;;;;2.27;100.00;98415.78;4895786;29;20127;-81
2023/12/24 04:59:40;;;;;;;4.80;3.67;;;;;;;2.16;100.00;98382.78;4895979;29;20091;-82
2023/12/24 05:02:06;;;;;;;5.72;4.40;;;;;;;2.35;100.00;98418.94;4895793;29;20077;-82
2023/12/24 05:04:33;;;;;;;6.90;5.60;;;;;;;2.03;100.00;98367.81;4858699;29;20049;-82
2023/12/24 05:06:59;;;;;;;7.00;5.10;;;;;;;2.25;100.00;98412.44;4845152;29;20033;-81
2023/12/24 05:09:25;;;;;;;6.53;4.35;;;;;;;2.18;100.00;98404.09;4859772;29;20049;-80
2023/12/24 05:11:50;;;;;;;3.17;2.55;;;;;;;2.19;100.00;98389.50;4859501;29;20064;-82
2023/12/24 05:14:16;;;;;;;3.30;3.00;;;;;;;2.13;100.00;98400.00;4859721;29;20476;-82
2023/12/24 05:16:41;;;;;;;4.10;3.15;;;;;;;1.92;100.00;98357.88;4843247;29;20029;-81
2023/12/24 05:19:06;;;;;;;2.95;2.45;;;;;;;2.19;100.00;98416.06;4857977;29;20566;-82
2023/12/24 05:21:31;;;;;;;2.10;1.90;;;;;;;1.98;100.00;98389.34;4842577;29;20081;-82
2023/12/24 05:23:57;;;;;;;2.03;1.92;;;;;;;2.10;100.00;98403.50;4857788;29;20162;-82
2023/12/24 05:26:24;;;;;;;2.10;1.90;;;;;;;1.92;100.00;98370.72;4858345;29;20120;-82
2023/12/24 05:28:51;;;;;;;2.10;1.90;;;;;;;2.10;100.00;98412.94;4858135;29;20070;-81
2023/12/24 05:31:16;;;;;;;2.15;2.00;;;;;;;2.04;100.00;98408.00;4857855;29;20061;-81
2023/12/24 05:33:42;;;;;;;1.90;1.80;;;;;;;1.94;100.00;98385.19;4858048;29;20073;-82
2023/12/24 05:36:12;;;;;;;2.67;2.35;;;;;;;1.89;100.00;98369.06;4901899;29;20079;-80
2023/12/24 05:38:37;;;;;;;3.83;2.80;;;;;;;1.87;100.00;98359.75;4916695;29;20024;-82
2023/12/24 05:41:03;;;;;;;5.45;4.55;;;;;;;1.91;100.00;98356.22;4916517;29;20031;-81
2023/12/24 05:43:28;;;;;;;8.63;5.88;;;;;;;2.15;100.00;98393.06;4917075;29;20079;-82
2023/12/24 05:45:53;;;;;;;7.63;6.50;;;;;;;2.02;100.00;98372.09;4916506;29;20059;-81
2023/12/24 05:48:19;;;;;;;7.65;6.78;;;;;;;2.02;100.00;98373.81;4915874;29;20039;-82
2023/12/24 05:50:44;;;;;;;9.07;6.95;;;;;;;2.04;100.00;98369.50;4899571;29;20070;-81
2023/12/24 05:53:09;;;;;;;9.93;7.57;;;;;;;1.81;100.00;98350.50;4916380;29;20055;-81
2023/12/24 05:55:35;;;;;;;9.63;6.90;;;;;;;1.92;100.00;98376.69;4916468;29;20485;-82
2023/12/24 05:58:00;;;;;;;6.82;6.07;;;;;;;1.87;100.00;98381.13;4916112;29;20111;-81
2023/12/24 06:00:25;;;;;;;6.45;5.15;;;;;;;1.88;100.00;98369.13;4916610;29;20032;-81
2023/12/24 06:02:51;;;;;;;9.30;6.15;;;;;;;1.84;100.00;98367.56;4916380;29;20024;-81
2023/12/24 06:05:16;;;;;;;7.95;5.95;;;;;;;1.76;100.00;98362.66;4916258;29;20163;-82
2023/12/24 06:07:41;;;;;;;6.15;5.07;;;;;;;1.78;100.00;98373.72;4916264;29;20087;-81
2023/12/24 06:10:07;;;;;;;7.25;6.00;;;;;;;1.47;100.00;98341.31;4899119;29;20472;-81
2023/12/24 06:12:34;;;;;;;4.38;3.97;;;;;;;1.50;100.00;98351.47;4915964;29;20032;-81
2023/12/24 06:15:01;;;;;;;6.68;5.22;;;;;;;1.56;100.00;98371.00;4916100;29;20102;-81
2023/12/24 06:17:26;;;;;;;6.65;4.28;;;;;;;1.31;100.00;98323.91;4899516;29;20369;-81
2023/12/24 06:19:52;;;;;;;4.72;3.58;;;;;;;1.54;100.00;98369.34;4916063;29;20096;-81
2023/12/24 06:22:17;;;;;;;4.35;3.30;;;;;;;1.62;100.00;98354.56;4916300;29;20083;-82
2023/12/24 06:24:43;;;;;;;6.38;4.18;;;;;;;1.40;100.00;98347.53;4916200;29;20402;-81
2023/12/24 06:27:09;;;;;;;4.65;3.42;;;;;;;1.60;100.00;98379.41;4916306;29;20083;-82
2023/12/24 06:29:37;;;;;;;5.50;3.72;;;;;;;1.43;100.00;98328.63;4916044;29;20028;-81
2023/12/24 06:32:03;;;;;;;5.57;4.82;;;;;;;1.63;100.00;98381.91;4898831;29;20025;-82
2023/12/24 06:34:28;;;;;;;7.38;6.70;;;;;;;1.39;100.00;98353.56;4898955;29;20142;-82
2023/12/24 06:36:53;;;;;;;7.82;6.95;;;;;;;1.47;100.00;98372.09;4916033;29;20056;-82
2023/12/24 06:39:20;;;;;;;6.70;6.05;;;;;;;1.49;100.00;98374.63;4915704;29;20060;-81
2023/12/24 06:41:47;;;;;;;11.07;7.40;;;;;;;1.23;100.00;98348.03;4915861;29;20032;-81
2023/12/24 06:44:12;;;;;;;8.30;7.15;;;;;;;1.17;100.00;98345.63;4915812;29;20084;-81
2023/12/24 06:46:37;;;;;;;7.32;5.07;;;;;;;1.30;100.00;98374.31;4898890;29;20036;-82
2023/12/24 06:49:03;;;;;;;4.95;3.20;;;;;;;1.12;100.00;98346.66;4915651;29;20036;-81
2023/12/24 06:51:28;;;;;;;3.97;2.30;;;;;;;1.15;100.00;98362.81;4915784;29;20025;-82
2023/12/24 06:53:53;;;;;;;8.52;5.35;;;;;;;1.16;100.00;98359.34;4915503;29;20028;-81
2023/12/24 06:56:19;;;;;;;7.65;4.72;;;;;;;1.01;100.00;98326.44;4915500;29;20119;-82
2023/12/24 06:58:44;;;;;;;4.03;3.63;;;;;;;1.22;100.00;98356.63;4898324;29;20082;-81
2023/12/24 07:01:09;;;;;;;2.90;2.38;;;;;;;1.23;100.00;98355.72;4917396;29;20111;-81
2023/12/24 07:03:34;;;;;;;2.90;2.45;;;;;;;1.16;100.00;98350.81;4918890;29;20035;-82
2023/12/24 07:06:00;;;;;;;2.90;2.60;;;;;;;1.30;100.00;98353.81;4902105;29;20115;-82
2023/12/24 07:08:25;;;;;;;3.45;2.58;;;;;;;1.20;100.00;98331.91;4918922;29;20087;-82
2023/12/24 07:10:50;;;;;;;3.72;3.00;;;;;;;1.33;100.00;98361.41;4902035;29;20032;-82
2023/12/24 07:13:16;;;;;;;3.00;2.70;;;;;;;1.39;100.00;98350.13;4918833;29;20386;-80
2023/12/24 07:15:42;;;;;;;3.15;2.42;;;;;;;1.22;100.00;98322.41;4901944;29;20390;-82
2023/12/24 07:18:08;;;;;;;4.43;2.95;;;;;;;1.52;100.00;98345.47;4918682;29;20024;-82
2023/12/24 07:20:33;;;;;;;7.22;6.53;;;;;;;1.39;100.00;98343.28;4918773;29;20032;-82
2023/12/24 07:22:59;;;;;;;8.57;6.43;;;;;;;1.43;100.00;98365.41;4918840;29;20537;-81
2023/12/24 07:25:24;;;;;;;15.98;10.13;;;;;;;1.28;100.00;98321.41;4901444;29;20175;-82
2023/12/24 07:27:49;;;;;;;14.45;12.95;;;;;;;1.05;100.00;98287.03;4901685;29;20032;-82
2023/12/24 07:30:15;;;;;;;20.02;16.08;;;;;;;1.09;100.00;98328.81;4918425;29;20024;-82
2023/12/24 07:32:44;;;;;;;8.80;7.22;;;;;;;1.40;100.00;98377.47;4901409;29;20079;-81
2023/12/24 07:35:10;;;;;;;9.73;6.55;;;;;;;1.35;100.00;98328.88;4918123;29;20414;-82
2023/12/24 07:37:35;;;;;;;7.72;6.13;;;;;;;1.23;100.00;98317.25;4918585;29;20036;-82
2023/12/24 07:40:01;;;;;;;5.45;3.65;;;;;;;1.11;100.00;98322.75;4901444;29;20040;-81
2023/12/24 07:42:26;;;;;;;6.95;5.30;;;;;;;1.21;100.00;98405.38;4917963;29;20027;-82
2023/12/24 07:44:51;;;;;;;11.65;6.43;;;;;;;1.04;100.00;98310.16;4918385;29;20032;-82
2023/12/24 07:47:17;;;;;;;12.73;8.68;;;;;;;0.91;100.00;98292.56;4918163;29;20363;-82
2023/12/24 07:49:42;;;;;;;8.27;6.65;;;;;;;1.03;100.00;98360.59;4918325;29;20032;-82
2023/12/24 07:52:08;;;;;;;7.60;5.63;;;;;;;1.00;100.00;98305.09;4917705;29;20028;-81
2023/12/24 07:54:33;;;;;;;7.80;5.75;;;;;;;1.08;100.00;98322.00;4883318;29;20044;-82
2023/12/24 07:56:59;;;;;;;23.40;15.27;;;;;;;1.11;100.00;98315.06;4899472;29;20099;-82
2023/12/24 07:59:24;;;;;;;21.05;13.57;;;;;;;1.47;100.00;98327.63;4882221;29;20043;-82
2023/12/24 08:01:49;;;;;;;26.58;17.23;;;;;;;1.53;100.00;98329.19;4899301;29;20111;-81
2023/12/24 08:04:15;;;;;;;32.67;20.40;;;;;;;1.64;100.00;98324.53;4899042;29;20029;-80
2023/12/24 08:06:40;;;;;;;7.35;5.35;;;;;;;1.32;100.00;98272.53;4899718;29;20499;-82
2023/12/24 08:09:07;;;;;;;6.05;4.65;;;;;;;1.55;100.00;98320.53;4899937;29;20470;-82
2023/12/24 08:11:33;;;;;;;34.92;23.70;;;;;;;1.66;100.00;98317.66;4898936;29;20506;-82
2023/12/24 08:13:58;;;;;;;35.85;23.98;;;;;;;1.74;100.00;98302.84;4899791;29;20048;-82
2023/12/24 08:16:23;;;;;;;11.57;8.65;;;;;;;1.77;100.00;98307.03;4899193;29;20020;-82
2023/12/24 08:18:49;;;;;;;9.70;6.57;;;;;;;1.63;100.00;98294.63;4882955;29;20039;-82
2023/12/24 08:21:14;;;;;;;11.35;7.57;;;;;;;1.61;100.00;98302.41;4898705;29;20052;-82
2023/12/24 08:23:39;;;;;;;19.50;10.93;;;;;;;1.39;100.00;98268.91;4899095;29;20028;-81
2023/12/24 08:26:05;;;;;;;10.48;7.13;;;;;;;1.65;100.00;98314.25;4882437;29;20036;-82
2023/12/24 08:28:31;;;;;;;22.90;13.43;;;;;;;1.55;100.00;98284.63;4899253;29;20083;-81
2023/12/24 08:30:57;;;;;;;9.82;7.25;;;;;;;1.40;100.00;98277.44;4898943;29;20024;-81
2023/12/24 08:33:22;;;;;;;5.70;4.65;;;;;;;1.55;100.00;98314.56;4898812;29;20029;-81
2023/12/24 08:35:47;;;;;;;3.92;3.33;;;;;;;1.29;100.00;98279.47;4905754;29;20048;-82
2023/12/24 08:38:13;;;;;;;3.15;2.65;;;;;;;1.28;100.00;98286.34;4917390;29;20044;-81
2023/12/24 08:40:38;;;;;;;3.92;3.45;;;;;;;1.18;100.00;98288.34;4917408;29;20435;-81
2023/12/24 08:43:04;;;;;;;4.43;3.65;;;;;;;1.15;100.00;98282.47;4917439;29;20032;-81
2023/12/24 08:45:29;;;;;;;4.53;4.13;;;;;;;1.43;100.00;98308.97;4917214;29;20036;-80
2023/12/24 08:47:54;;;;;;;7.20;6.50;;;;;;;1.26;100.00;98267.56;4900499;29;20036;-81
2023/12/24 08:50:21;;;;;;;6.25;4.97;;;;;;;1.31;100.00;98276.00;4916818;29;20032;-81
2023/12/24 08:52:49;;;;;;;11.68;7.32;;;;;;;1.23;100.00;98278.78;4900492;29;20121;-81
2023/12/24 08:55:15;;;;;;;6.68;4.25;;;;;;;1.06;100.00;98254.56;4917001;29;20083;-81
2023/12/24 08:57:41;;;;;;;4.50;3.25;;;;;;;1.13;100.00;98271.41;4917301;29;20043;-81
2023/12/24 09:00:11;;;;;;;5.80;3.95;;;;;;;1.07;100.00;98251.94;4900253;29;20024;-81
2023/12/24 09:02:37;;;;;;;3.42;2.97;;;;;;;1.17;100.00;98281.53;4917173;29;20032;-81
2023/12/24 09:05:03;;;;;;;5.47;4.72;;;;;;;1.24;100.00;98284.75;4917648;29;20055;-81
2023/12/24 09:07:28;;;;;;;13.10;8.02;;;;;;;1.28;100.00;98280.38;4917363;29;20122;-81
2023/12/24 09:09:53;;;;;;;9.27;6.32;;;;;;;0.93;100.00;98224.16;4917476;29;20032;-80
2023/12/24 09:12:19;;;;;;;7.47;5.57;;;;;;;1.30;100.00;98276.84;4916737;29;20458;-80
2023/12/24 09:14:44;;;;;;;5.80;4.47;;;;;;;1.13;100.00;98245.78;4916908;29;20543;-80
2023/12/24 09:17:10;;;;;;;4.18;3.78;;;;;;;1.16;100.00;98261.06;4916588;29;20095;-80
2023/12/24 09:19:35;;;;;;;8.85;6.13;;;;;;;1.24;100.00;98252.25;4916702;29;20054;-80
2023/12/24 09:22:00;;;;;;;7.60;5.43;;;;;;;1.39;100.00;98275.72;4916781;29;20454;-80
2023/12/24 09:24:26;;;;;;;11.27;7.20;;;;;;;1.53;100.00;98275.31;4916046;29;20518;-80
2023/12/24 09:26:52;;;;;;;14.15;7.97;;;;;;;1.53;100.00;98283.00;4916431;29;20020;-80
2023/12/24 09:29:21;;;;;;;13.13;8.30;;;;;;;1.45;100.00;98261.00;4916264;29;20031;-80
2023/12/24 09:31:47;;;;;;;15.65;10.50;;;;;;;1.52;100.00;98283.88;4916846;29;20025;-81
2023/12/24 09:34:12;;;;;;;12.30;9.43;;;;;;;1.31;100.00;98232.38;4916243;29;20035;-81
2023/12/24 09:36:37;;;;;;;11.23;8.13;;;;;;;1.34;100.00;98239.97;4902035;29;20048;-81
2023/12/24 09:39:03;;;;;;;19.88;13.30;;;;;;;1.33;100.00;98237.47;4897551;29;20028;-80
2023/12/24 09:41:28;;;;;;;11.07;8.88;;;;;;;1.58;100.00;98258.03;4896810;29;20060;-80
2023/12/24 09:43:54;;;;;;;10.13;7.93;;;;;;;1.26;100.00;98206.03;4897028;29;20056;-80
2023/12/24 09:46:19;;;;;;;17.88;13.05;;;;;;;1.63;100.00;98245.88;4896685;29;20056;-80
2023/12/24 09:48:44;;;;;;;22.58;15.68;;;;;;;1.72;100.00;98246.41;4897002;29;20024;-80
2023/12/24 09:51:10;;;;;;;11.02;9.32;;;;;;;1.60;100.00;98220.31;4897378;29;20381;-80
2023/12/24 09:53:35;;;;;;;9.77;7.55;;;;;;;1.85;100.00;98241.69;4896844;29;20028;-80
2023/12/24 09:56:01;;;;;;;16.15;11.43;;;;;;;1.90;100.00;98234.69;4897464;29;20032;-79
2023/12/24 09:58:26;;;;;;;10.43;9.10;;;;;;;1.72;100.00;98207.06;4897226;29;20431;-79
2023/12/24 10:00:52;;;;;;;10.73;8.88;;;;;;;1.90;100.00;98229.56;4897506;29;20497;-80
2023/12/24 10:03:17;;;;;;;15.00;12.50;;;;;;;1.78;100.00;98190.66;4897269;29;20108;-80
2023/12/24 10:06:19;;;;;;;27.45;24.55;;;;;;;2.12;100.00;98218.53;4897513;29;20120;-80
2023/12/24 10:08:46;;;;;;;13.93;11.90;;;;;;;2.06;100.00;98199.03;4839317;29;20641;-80
2023/12/24 10:11:23;;;;;;;16.15;12.82;;;;;;;2.08;100.00;98210.09;4839201;29;20089;-80
2023/12/24 10:13:58;;;;;;;13.32;11.90;;;;;;;1.81;100.00;98150.28;4824078;29;20427;-80
2023/12/24 10:16:23;;;;;;;15.25;12.10;;;;;;;2.20;100.00;98217.38;4838870;29;20393;-80
2023/12/24 10:18:49;;;;;;;23.80;15.73;;;;;;;2.10;100.00;98184.34;4839028;29;20036;-80
2023/12/24 10:21:16;;;;;;;44.17;24.40;;;;;;;2.21;100.00;98195.09;4823385;29;20467;-80
2023/12/24 10:23:41;;;;;;;34.50;21.88;;;;;;;2.35;100.00;98197.16;4838971;29;20046;-80
2023/12/24 10:26:08;;;;;;;23.90;16.55;;;;;;;2.18;100.00;98175.47;4839088;29;20373;-82
2023/12/24 10:28:44;;;;;;;22.92;16.48;;;;;;;2.40;100.00;98214.09;4838811;29;20488;-81
2023/12/24 10:31:10;;;;;;;25.23;18.00;;;;;;;2.29;100.00;98171.69;4839007;29;20073;-80
2023/12/24 10:33:38;;;;;;;33.67;21.80;;;;;;;2.26;100.00;98164.94;4838069;29;20496;-81
2023/12/24 10:36:04;;;;;;;35.92;21.88;;;;;;;2.17;100.00;98160.13;4850100;29;20049;-81
2023/12/24 10:38:29;;;;;;;40.17;23.98;;;;;;;2.03;100.00;98136.69;4860640;29;20562;-81
2023/12/24 10:40:55;;;;;;;46.08;25.85;;;;;;;2.29;100.00;98177.66;4845299;29;20125;-81
2023/12/24 10:43:21;;;;;;;58.08;29.05;;;;;;;2.37;100.00;98182.53;4905874;29;20475;-81
2023/12/24 10:45:46;;;;;;;66.63;34.83;;;;;;;2.29;100.00;98151.97;4919135;29;20111;-81
2023/12/24 10:48:12;;;;;;;58.40;31.27;;;;;;;2.42;100.00;98147.22;4919296;29;20032;-80
2023/12/24 10:50:38;;;;;;;58.22;31.02;;;;;;;2.54;100.00;98163.91;4919045;29;20036;-82
2023/12/24 10:53:03;;;;;;;52.28;29.98;;;;;;;2.62;100.00;98179.88;4919127;29;20035;-81
2023/12/24 10:55:31;;;;;;;43.85;27.45;;;;;;;2.67;100.00;98185.69;4917654;29;20031;-81
2023/12/24 10:58:34;;;;;;;34.28;24.30;;;;;;;2.70;100.00;98183.00;4918765;29;20492;-81
2023/12/24 11:01:06;;;;;;;45.40;31.00;;;;;;;2.75;100.00;98173.38;4918941;29;20402;-81
2023/12/24 11:03:47;;;;;;;47.20;34.25;;;;;;;2.58;100.00;98124.34;4918791;29;20481;-81
2023/12/24 11:06:35;;;;;;;45.03;32.85;;;;;;;2.91;100.00;98166.75;4919077;29;20032;-81
2023/12/24 11:09:03;;;;;;;47.50;34.20;;;;;;;2.81;100.00;98128.59;4919003;29;20033;-81
2023/12/24 11:11:55;;;;;;;59.58;43.17;;;;;;;3.07;100.00;98150.69;4917483;29;20040;-81
2023/12/24 11:14:40;;;;;;;42.35;31.67;;;;;;;3.10;100.00;98143.69;4918612;29;20028;-81
2023/12/24 11:17:08;;;;;;;45.65;33.78;;;;;;;2.81;100.00;98080.56;4918877;29;20028;-81
2023/12/24 11:19:35;;;;;;;34.67;25.75;;;;;;;2.84;100.00;98083.03;4918739;29;20114;-81
2023/12/24 11:22:12;;;;;;;40.13;29.58;;;;;;;3.24;100.00;98135.38;4917604;29;20527;-82
2023/12/24 11:24:42;;;;;;;32.30;24.95;;;;;;;3.15;100.00;98099.75;4918489;29;20496;-81
2023/12/24 11:27:11;;;;;;;33.17;22.77;;;;;;;3.07;100.00;98073.50;4917436;29;20493;-81
2023/12/24 11:29:49;;;;;;;45.15;31.77;;;;;;;3.38;100.00;98132.28;4916954;29;20032;-81